createdAt,value
2018-11-20T00:00:37.017Z,4.17
2018-11-20T00:03:31.556Z,4.07
2018-11-20T00:06:31.640Z,3.90
2018-11-20T00:09:18.692Z,3.67
2018-11-20T00:12:09.917Z,4.23
2018-11-20T00:15:00.981Z,3.67
2018-11-20T00:17:38.101Z,4.03
2018-11-20T00:20:22.632Z,4.00
2018-11-20T00:23:10.950Z,4.03
2018-11-20T00:26:08.514Z,3.77
2018-11-20T00:28:48.062Z,3.90
2018-11-20T00:31:34.542Z,4.00
2018-11-20T00:34:13.234Z,4.20
2018-11-20T00:36:53.820Z,3.93
2018-11-20T00:40:00.555Z,4.10
2018-11-20T00:43:06.713Z,4.20
2018-11-20T00:46:12.703Z,4.07
2018-11-20T00:48:59.584Z,3.97
2018-11-20T00:51:41.671Z,4.30
2018-11-20T00:54:39.032Z,3.80
2018-11-20T00:57:26.137Z,3.97
2018-11-20T01:00:26.729Z,4.40
2018-11-20T01:03:10.047Z,4.13
2018-11-20T01:06:00.941Z,4.17
2018-11-20T01:08:38.143Z,5.00
2018-11-20T01:11:26.492Z,4.43
2018-11-20T01:14:20.849Z,5.00
2018-11-20T01:17:12.745Z,4.80
2018-11-20T01:20:01.026Z,4.97
2018-11-20T01:23:00.937Z,5.00
2018-11-20T01:25:47.839Z,4.67
2018-11-20T01:28:36.122Z,4.53
2018-11-20T01:31:27.244Z,4.63
2018-11-20T01:34:13.024Z,5.87
2018-11-20T01:37:01.607Z,5.60
2018-11-20T01:39:58.748Z,6.27
2018-11-20T01:43:02.414Z,5.80
2018-11-20T01:45:53.751Z,5.67
2018-11-20T01:48:34.396Z,6.67
2018-11-20T01:51:28.081Z,6.20
2018-11-20T01:54:10.372Z,6.07
2018-11-20T01:56:57.266Z,5.80
2018-11-20T01:59:54.508Z,6.07
2018-11-20T02:02:40.950Z,6.10
2018-11-20T02:05:41.270Z,5.63
2018-11-20T02:08:38.654Z,6.33
2018-11-20T02:11:29.058Z,6.43
2018-11-20T02:14:29.158Z,6.13
2018-11-20T02:17:32.081Z,6.83
2018-11-20T02:20:29.303Z,6.47
2018-11-20T02:23:35.645Z,6.03
2018-11-20T02:26:39.176Z,6.63
2018-11-20T02:29:39.427Z,6.50
2018-11-20T02:32:27.719Z,6.53
2018-11-20T02:35:33.882Z,6.57
2018-11-20T02:38:25.948Z,6.73
2018-11-20T02:41:02.052Z,6.60
2018-11-20T02:43:42.325Z,7.53
2018-11-20T02:46:30.167Z,7.50
2018-11-20T02:49:24.440Z,7.77
2018-11-20T02:52:07.951Z,8.07
2018-11-20T02:54:55.165Z,7.40
2018-11-20T02:57:55.176Z,8.27
2018-11-20T03:00:46.368Z,7.37
2018-11-20T03:03:43.402Z,6.80
2018-11-20T03:06:33.348Z,7.87
2018-11-20T03:09:24.403Z,7.87
2018-11-20T03:12:11.479Z,8.63
2018-11-20T03:14:51.839Z,7.33
2018-11-20T03:17:38.650Z,7.67
2018-11-20T03:20:15.388Z,8.00
2018-11-20T03:23:06.392Z,7.20
2018-11-20T03:26:07.931Z,8.33
2018-11-20T03:28:59.059Z,7.53
2018-11-20T03:31:38.389Z,7.53
2018-11-20T03:34:41.739Z,7.57
2018-11-20T03:37:29.592Z,5.90
2018-11-20T03:40:16.546Z,7.87
2018-11-20T03:43:04.833Z,6.77
2018-11-20T03:45:51.480Z,7.60
2018-11-20T03:48:38.226Z,7.27
2018-11-20T03:51:27.177Z,7.80
2018-11-20T03:54:09.714Z,8.00
2018-11-20T03:56:56.359Z,8.67
2018-11-20T03:59:43.223Z,7.33
2018-11-20T04:02:34.141Z,8.53
2018-11-20T04:05:24.814Z,7.77
2018-11-20T04:08:11.756Z,7.87
2018-11-20T04:11:00.373Z,8.17
2018-11-20T04:13:37.625Z,8.20
2018-11-20T04:16:22.821Z,8.63
2018-11-20T04:19:23.416Z,8.50
2018-11-20T04:22:12.295Z,8.73
2018-11-20T04:25:03.469Z,7.97
2018-11-20T04:27:58.903Z,8.50
2018-11-20T04:31:35.462Z,8.73
2018-11-20T04:34:23.764Z,8.77
2018-11-20T04:37:38.325Z,8.50
2018-11-20T04:40:45.532Z,7.83
2018-11-20T04:43:39.454Z,8.27
2018-11-20T04:46:26.242Z,8.93
2018-11-20T04:49:17.419Z,7.97
2018-11-20T04:52:01.688Z,8.87
2018-11-20T04:54:39.370Z,8.70
2018-11-20T04:57:26.266Z,8.63
2018-11-20T05:00:13.083Z,8.77
2018-11-20T05:03:00.237Z,8.67
2018-11-20T05:05:48.956Z,9.23
2018-11-20T05:08:31.020Z,7.93
2018-11-20T05:11:17.693Z,8.53
2018-11-20T05:14:04.610Z,7.67
2018-11-20T05:16:51.625Z,8.57
2018-11-20T05:19:34.649Z,8.53
2018-11-20T05:22:21.412Z,8.50
2018-11-20T05:25:09.120Z,8.10
2018-11-20T05:28:00.132Z,8.80
2018-11-20T05:31:00.161Z,8.20
2018-11-20T05:34:06.469Z,8.20
2018-11-20T05:36:53.138Z,9.40
2018-11-20T05:39:44.389Z,8.77
2018-11-20T05:42:21.238Z,8.33
2018-11-20T05:45:07.068Z,8.63
2018-11-20T05:47:53.982Z,8.67
2018-11-20T05:50:45.344Z,8.73
2018-11-20T05:53:26.798Z,8.07
2018-11-20T05:56:10.449Z,9.07
2018-11-20T05:59:16.676Z,8.90
2018-11-20T06:02:10.623Z,9.03
2018-11-20T06:04:58.913Z,8.47
2018-11-20T06:07:51.326Z,9.50
2018-11-20T06:10:45.711Z,8.97
2018-11-20T06:13:33.955Z,8.73
2018-11-20T06:16:28.131Z,9.70
2018-11-20T06:19:15.338Z,9.60
2018-11-20T06:22:03.192Z,10.30
2018-11-20T06:24:38.921Z,9.90
2018-11-20T06:27:22.641Z,9.87
2018-11-20T06:30:13.454Z,9.70
2018-11-20T06:32:57.482Z,9.70
2018-11-20T06:35:44.245Z,9.97
2018-11-20T06:38:27.397Z,8.60
2018-11-20T06:41:14.164Z,8.90
2018-11-20T06:44:14.461Z,9.30
2018-11-20T06:47:01.438Z,8.87
2018-11-20T06:49:56.542Z,10.50
2018-11-20T06:52:45.630Z,10.03
2018-11-20T06:55:45.797Z,9.90
2018-11-20T06:58:32.754Z,9.97
2018-11-20T07:02:53.651Z,10.50
2018-11-20T07:05:43.700Z,10.77
2018-11-20T07:08:43.776Z,10.13
2018-11-20T07:11:30.540Z,10.53
2018-11-20T07:14:14.971Z,10.43
2018-11-20T07:17:12.361Z,10.23
2018-11-20T07:19:58.274Z,10.60
2018-11-20T07:22:36.542Z,11.03
2018-11-20T07:25:33.285Z,12.07
2018-11-20T07:28:19.540Z,11.70
2018-11-20T07:31:26.658Z,11.83
2018-11-20T07:34:22.973Z,11.73
2018-11-20T07:37:16.351Z,11.40
2018-11-20T07:40:02.308Z,12.53
2018-11-20T07:42:48.870Z,10.97
2018-11-20T07:45:34.743Z,10.97
2018-11-20T07:48:31.680Z,13.00
2018-11-20T07:51:17.941Z,11.60
2018-11-20T07:54:23.758Z,11.87
2018-11-20T07:57:14.208Z,11.53
2018-11-20T08:00:16.652Z,11.20
2018-11-20T08:03:02.020Z,11.33
2018-11-20T08:05:52.169Z,10.17
2018-11-20T08:08:31.966Z,11.87
2018-11-20T08:11:22.211Z,11.87
2018-11-20T08:14:02.383Z,11.23
2018-11-20T08:16:47.461Z,11.93
2018-11-20T08:19:43.360Z,12.13
2018-11-20T08:22:30.883Z,13.10
2018-11-20T08:25:30.451Z,12.07
2018-11-20T08:28:09.905Z,13.20
2018-11-20T08:31:12.985Z,12.17
2018-11-20T08:33:59.123Z,11.63
2018-11-20T08:36:45.218Z,13.90
2018-11-20T08:39:31.401Z,13.20
2018-11-20T08:42:28.001Z,12.90
2018-11-20T08:45:18.248Z,13.87
2018-11-20T08:48:04.190Z,13.50
2018-11-20T08:50:39.261Z,15.00
2018-11-20T08:53:20.426Z,14.23
2018-11-20T08:56:10.805Z,13.73
2018-11-20T08:59:10.250Z,15.07
2018-11-20T09:02:03.672Z,13.63
2018-11-20T09:04:49.575Z,14.20
2018-11-20T09:07:34.912Z,14.70
2018-11-20T09:10:31.307Z,14.87
2018-11-20T09:13:18.856Z,14.03
2018-11-20T09:16:09.036Z,13.57
2018-11-20T09:19:08.567Z,15.07
2018-11-20T09:21:46.960Z,15.90
2018-11-20T09:24:32.987Z,15.57
2018-11-20T09:27:21.072Z,15.53
2018-11-20T09:30:07.231Z,15.47
2018-11-20T09:32:54.673Z,15.57
2018-11-20T09:35:41.415Z,16.87
2018-11-20T09:38:28.724Z,13.93
2018-11-20T09:41:14.555Z,16.80
2018-11-20T09:44:26.366Z,15.93
2018-11-20T09:47:19.624Z,14.93
2018-11-20T09:50:09.646Z,16.17
2018-11-20T09:52:55.492Z,16.53
2018-11-20T09:55:41.291Z,15.33
2018-11-20T09:58:27.164Z,16.27
2018-11-20T10:01:12.727Z,16.33
2018-11-20T10:04:02.501Z,16.67
2018-11-20T10:07:08.776Z,16.33
2018-11-20T10:09:45.790Z,15.97
2018-11-20T10:12:39.145Z,15.37
2018-11-20T10:15:25.694Z,15.53
2018-11-20T10:18:28.039Z,16.10
2018-11-20T10:21:10.322Z,14.83
2018-11-20T10:24:10.014Z,16.57
2018-11-20T10:26:53.656Z,15.33
2018-11-20T10:29:46.895Z,16.00
2018-11-20T10:32:33.975Z,16.90
2018-11-20T10:35:36.695Z,16.83
2018-11-20T10:38:30.304Z,17.07
2018-11-20T10:41:23.750Z,15.20
2018-11-20T10:44:09.382Z,13.10
2018-11-20T10:47:05.548Z,13.40
2018-11-20T10:49:51.649Z,15.73
2018-11-20T10:52:36.951Z,16.30
2018-11-20T10:55:27.473Z,15.53
2018-11-20T10:58:20.933Z,16.83
2018-11-20T11:01:06.886Z,14.80
2018-11-20T11:03:53.004Z,16.23
2018-11-20T11:06:49.506Z,16.17
2018-11-20T11:09:19.820Z,15.40
2018-11-20T11:12:11.939Z,15.40
2018-11-20T11:14:59.373Z,15.57
2018-11-20T11:17:45.646Z,16.37
2018-11-20T11:20:36.295Z,16.33
2018-11-20T11:23:22.384Z,15.80
2018-11-20T11:26:21.824Z,16.40
2018-11-20T11:29:08.068Z,16.13
2018-11-20T11:31:54.279Z,15.60
2018-11-20T11:34:41.762Z,13.80
2018-11-20T11:37:34.579Z,15.10
2018-11-20T11:40:27.654Z,14.80
2018-11-20T11:43:15.934Z,15.97
2018-11-20T11:46:21.511Z,16.57
2018-11-20T11:49:26.839Z,14.70
2018-11-20T11:52:03.857Z,15.33
2018-11-20T11:55:06.592Z,15.60
2018-11-20T11:57:44.730Z,14.47
2018-11-20T12:00:41.268Z,15.97
2018-11-20T12:03:31.307Z,15.67
2018-11-20T12:06:17.356Z,16.10
2018-11-20T12:09:15.227Z,15.93
2018-11-20T12:12:10.674Z,14.63
2018-11-20T12:15:03.912Z,15.27
2018-11-20T12:17:59.273Z,14.43
2018-11-20T12:20:49.821Z,15.20
2018-11-20T12:23:35.976Z,14.97
2018-11-20T12:26:38.460Z,14.83
2018-11-20T12:29:14.826Z,14.43
2018-11-20T12:32:08.495Z,14.63
2018-11-20T12:34:54.375Z,14.20
2018-11-20T12:37:43.640Z,14.53
2018-11-20T12:40:20.354Z,13.63
2018-11-20T12:43:01.185Z,14.90
2018-11-20T12:46:04.450Z,15.57
2018-11-20T12:48:56.303Z,15.53
2018-11-20T12:51:40.790Z,15.87
2018-11-20T12:54:29.809Z,14.37
2018-11-20T12:57:30.485Z,15.00
2018-11-20T13:00:21.588Z,14.73
2018-11-20T13:03:12.073Z,14.90
2018-11-20T13:05:59.588Z,13.87
2018-11-20T13:08:46.492Z,14.43
2018-11-20T13:11:36.693Z,13.63
2018-11-20T13:14:27.031Z,14.17
2018-11-20T13:17:06.984Z,14.03
2018-11-20T13:19:50.048Z,15.80
2018-11-20T13:22:43.511Z,14.37
2018-11-20T13:25:21.928Z,14.93
2018-11-20T13:28:08.004Z,13.77
2018-11-20T13:30:54.515Z,13.57
2018-11-20T13:33:40.579Z,14.70
2018-11-20T13:36:26.980Z,14.67
2018-11-20T13:39:15.374Z,14.73
2018-11-20T13:41:51.893Z,14.53
2018-11-20T13:44:45.377Z,15.43
2018-11-20T13:47:31.997Z,15.10
2018-11-20T13:50:24.762Z,14.73
2018-11-20T13:53:11.946Z,15.10
2018-11-20T13:56:01.403Z,15.53
2018-11-20T13:59:00.892Z,15.87
2018-11-20T14:01:48.388Z,16.10
2018-11-20T14:04:38.621Z,16.00
2018-11-20T14:07:25.044Z,16.17
2018-11-20T14:10:18.351Z,15.83
2018-11-20T14:13:04.214Z,15.67
2018-11-20T14:15:51.978Z,15.47
2018-11-20T14:18:45.859Z,16.00
2018-11-20T14:21:45.255Z,14.83
2018-11-20T14:24:35.410Z,16.20
2018-11-20T14:27:34.617Z,16.77
2018-11-20T14:30:22.503Z,16.03
2018-11-20T14:33:12.569Z,17.13
2018-11-20T14:36:12.099Z,17.50
2018-11-20T14:38:59.591Z,16.03
2018-11-20T14:41:47.050Z,17.47
2018-11-20T14:44:24.100Z,16.70
2018-11-20T14:47:10.523Z,17.90
2018-11-20T14:50:00.770Z,17.53
2018-11-20T14:52:46.692Z,17.17
2018-11-20T14:55:34.207Z,16.70
2018-11-20T14:58:21.154Z,17.43
2018-11-20T15:01:14.867Z,17.03
2018-11-20T15:04:08.318Z,16.57
2018-11-20T15:06:54.335Z,17.80
2018-11-20T15:09:44.634Z,17.40
2018-11-20T15:12:30.823Z,17.83
2018-11-20T15:15:27.782Z,16.23
2018-11-20T15:18:18.073Z,18.20
2018-11-20T15:21:14.169Z,16.90
2018-11-20T15:24:04.413Z,18.60
2018-11-20T15:26:55.897Z,18.93
2018-11-20T15:29:46.268Z,16.97
2018-11-20T15:32:33.760Z,18.27
2018-11-20T15:35:16.722Z,19.13
2018-11-20T15:38:09.775Z,18.37
2018-11-20T15:40:54.656Z,18.03
2018-11-20T15:43:45.011Z,18.43
2018-11-20T15:46:34.589Z,18.53
2018-11-20T15:49:36.907Z,17.27
2018-11-20T15:52:30.542Z,18.73
2018-11-20T15:55:16.335Z,18.07
2018-11-20T15:58:05.200Z,19.17
2018-11-20T16:00:51.180Z,18.40
2018-11-20T16:03:36.997Z,17.83
2018-11-20T16:06:24.599Z,13.10
2018-11-20T16:09:11.190Z,19.10
2018-11-20T16:12:04.589Z,19.47
2018-11-20T16:14:54.669Z,18.87
2018-11-20T16:17:44.953Z,18.60
2018-11-20T16:20:35.195Z,18.30
2018-11-20T16:23:21.455Z,18.57
2018-11-20T16:26:03.168Z,18.90
2018-11-20T16:28:51.230Z,18.20
2018-11-20T16:31:37.385Z,18.80
2018-11-20T16:34:25.712Z,18.97
2018-11-20T16:37:13.248Z,17.60
2018-11-20T16:40:43.341Z,19.43
2018-11-20T16:43:48.791Z,18.30
2018-11-20T16:46:54.263Z,18.87
2018-11-20T16:49:40.437Z,18.23
2018-11-20T16:52:26.904Z,17.60
2018-11-20T16:55:13.101Z,18.33
2018-11-20T16:57:56.378Z,18.33
2018-11-20T17:00:47.250Z,18.57
2018-11-20T17:03:37.576Z,18.40
2018-11-20T17:06:24.425Z,19.07
2018-11-20T17:09:19.782Z,19.53
2018-11-20T17:12:07.609Z,17.90
2018-11-20T17:14:58.173Z,16.67
2018-11-20T17:17:54.222Z,16.73
2018-11-20T17:20:37.267Z,19.57
2018-11-20T17:23:23.678Z,17.47
2018-11-20T17:26:14.546Z,18.43
2018-11-20T17:29:04.768Z,18.20
2018-11-20T17:32:07.599Z,18.60
2018-11-20T17:34:50.177Z,17.73
2018-11-20T17:37:43.623Z,18.50
2018-11-20T17:40:37.056Z,18.00
2018-11-20T17:43:42.715Z,17.17
2018-11-20T17:46:39.200Z,17.27
2018-11-20T17:49:18.711Z,17.90
2018-11-20T17:52:06.236Z,17.57
2018-11-20T17:55:02.812Z,19.07
2018-11-20T17:57:57.138Z,17.00
2018-11-20T18:00:46.804Z,17.33
2018-11-20T18:03:32.882Z,17.63
2018-11-20T18:06:11.054Z,17.53
2018-11-20T18:08:57.382Z,16.83
2018-11-20T18:11:45.278Z,18.13
2018-11-20T18:14:31.284Z,19.23
2018-11-20T18:17:21.797Z,17.63
2018-11-20T18:20:15.073Z,18.70
2018-11-20T18:23:04.571Z,18.50
2018-11-20T18:26:01.317Z,18.03
2018-11-20T18:28:47.682Z,19.20
2018-11-20T18:31:41.194Z,17.50
2018-11-20T18:34:27.479Z,18.17
2018-11-20T18:37:17.819Z,17.83
2018-11-20T18:40:14.266Z,17.33
2018-11-20T18:43:02.266Z,17.53
2018-11-20T18:45:43.692Z,17.87
2018-11-20T18:48:34.347Z,17.70
2018-11-20T18:51:22.401Z,16.80
2018-11-20T18:54:10.191Z,16.03
2018-11-20T18:56:58.535Z,16.33
2018-11-20T18:59:44.428Z,15.90
2018-11-20T19:02:34.447Z,15.53
2018-11-20T19:05:20.546Z,14.97
2018-11-20T19:08:20.460Z,15.20
2018-11-20T19:11:10.659Z,15.20
2018-11-20T19:14:01.216Z,14.93
2018-11-20T19:16:52.924Z,14.80
2018-11-20T19:19:43.010Z,15.73
2018-11-20T19:22:33.142Z,13.90
2018-11-20T19:25:26.404Z,15.83
2018-11-20T19:28:12.579Z,14.27
2018-11-20T19:31:05.600Z,15.20
2018-11-20T19:34:05.092Z,14.87
2018-11-20T19:36:58.373Z,13.90
2018-11-20T19:39:46.808Z,14.23
2018-11-20T19:42:33.128Z,15.33
2018-11-20T19:45:32.681Z,15.40
2018-11-20T19:48:11.438Z,14.77
2018-11-20T19:50:57.957Z,14.77
2018-11-20T19:53:44.633Z,14.17
2018-11-20T19:56:30.994Z,15.47
2018-11-20T19:59:14.177Z,15.60
2018-11-20T20:02:01.881Z,14.27
2018-11-20T20:04:48.449Z,14.70
2018-11-20T20:07:38.973Z,15.33
2018-11-20T20:10:30.901Z,15.13
2018-11-20T20:13:11.897Z,13.93
2018-11-20T20:19:25.912Z,15.17
2018-11-20T20:22:19.297Z,14.30
2018-11-20T20:25:01.396Z,13.53
2018-11-20T20:27:54.254Z,15.67
2018-11-20T20:30:54.029Z,15.17
2018-11-20T20:33:41.958Z,15.03
2018-11-20T20:36:29.570Z,14.67
2018-11-20T20:39:15.628Z,15.00
2018-11-20T20:42:20.809Z,14.87
2018-11-20T20:45:10.376Z,14.37
2018-11-20T20:48:01.772Z,14.57
2018-11-20T20:50:49.159Z,15.80
2018-11-20T20:53:38.476Z,14.67
2018-11-20T20:56:22.973Z,15.47
2018-11-20T20:59:16.921Z,15.77
2018-11-20T21:02:22.815Z,14.33
2018-11-20T21:05:19.394Z,14.87
2018-11-20T21:08:10.040Z,15.47
2018-11-20T21:10:57.669Z,14.80
2018-11-20T21:14:03.759Z,14.93
2018-11-20T21:17:06.362Z,15.20
2018-11-20T21:19:57.111Z,14.93
2018-11-20T21:22:56.852Z,14.70
2018-11-20T21:25:56.311Z,14.73
2018-11-20T21:28:42.708Z,14.60
2018-11-20T21:31:36.004Z,15.20
2018-11-20T21:34:33.084Z,14.87
2018-11-20T21:37:41.336Z,14.87
2018-11-20T21:40:34.692Z,14.47
2018-11-20T21:43:25.088Z,13.70
2018-11-20T21:46:24.765Z,15.37
2018-11-20T21:49:10.888Z,14.93
2018-11-20T21:52:04.201Z,15.70
2018-11-20T21:54:42.681Z,15.13
2018-11-20T21:57:37.759Z,16.23
2018-11-20T22:00:30.766Z,17.27
2018-11-20T22:03:30.355Z,16.03
2018-11-20T22:06:13.267Z,17.03
2018-11-20T22:08:59.219Z,16.23
2018-11-20T22:11:46.764Z,16.53
2018-11-20T22:14:31.844Z,17.27
2018-11-20T22:17:18.230Z,17.27
2018-11-20T22:20:04.318Z,16.10
2018-11-20T22:22:49.916Z,17.37
2018-11-20T22:25:40.495Z,16.33
2018-11-20T22:28:27.059Z,16.47
2018-11-20T22:31:12.644Z,17.77
2018-11-20T22:34:05.935Z,16.67
2018-11-20T22:36:53.007Z,17.70
2018-11-20T22:39:40.530Z,18.33
2018-11-20T22:42:21.786Z,16.70
2018-11-20T22:45:09.295Z,17.33
2018-11-20T22:47:51.892Z,17.13
2018-11-20T22:50:37.759Z,18.40
2018-11-20T22:53:27.982Z,17.77
2018-11-20T22:56:18.228Z,17.93
2018-11-20T22:59:13.292Z,16.77
2018-11-20T23:02:06.335Z,17.63
2018-11-20T23:04:54.518Z,17.17
2018-11-20T23:08:00.306Z,18.13
2018-11-20T23:10:29.268Z,17.03
2018-11-20T23:12:57.541Z,17.93
2018-11-20T23:15:25.878Z,18.03
2018-11-20T23:17:54.204Z,18.37
2018-11-20T23:20:22.472Z,17.87
2018-11-20T23:22:50.824Z,18.00
2018-11-20T23:25:19.067Z,17.53
2018-11-20T23:27:47.628Z,18.90
2018-11-20T23:30:16.534Z,17.43
2018-11-20T23:32:44.880Z,18.27
2018-11-20T23:35:13.604Z,15.43
2018-11-20T23:37:42.599Z,17.27
2018-11-20T23:40:12.129Z,17.67
2018-11-20T23:42:40.450Z,18.23
2018-11-20T23:45:10.914Z,18.03
2018-11-20T23:47:39.178Z,17.13
2018-11-20T23:50:09.322Z,17.00
2018-11-20T23:52:37.747Z,18.57
2018-11-20T23:55:08.110Z,18.07
2018-11-20T23:57:36.365Z,17.27
